Letona, Arkansas
Current Conditions -  °F | °C
As of 7:56 PM on Sunday 25 Jan 2015 (Local Time) from KSRC Reporting Station
Overcast Overcast  
Wind Chill:   Ceiling: 3400
Heat Index:   Visibility: 10mi
Dew Point:   Wind: 13mph
Humidity: 63%   Direction: 300°WNW
Pressure: 29.96"   Gusts: 22mph
Location:  35.36°N, 91.83°W
Report Text: KSRC 260156Z AUTO 30011G19KT 10SM OVC034 08/01 A2996 RMK AO2 SLP153 T00780011 TSNO
Loading
Personal Weather Stations






























Interactive Weather Map New forecast layout! Learn more

10-Day Weather Forecast

Advertisements
Track Severe Weather on mobile